Time;durP1;ratioP1;P1;durP2;ratioP2;P2;SDS_P1;SDS_P2;PMS_P1;PMS_P2;Temp;Humidity;BMP_temperature;BMP_pressure;BME280_temperature;BME280_humidity;BME280_pressure;Samples;Min_cycle;Max_cycle;Signal;HPM_P1;HPM_P2
2021/05/24 00:00:57;;;;;;;13.70;7.82;;;7.20;99.90;;;;;;4966469;28;20030;-61
2021/05/24 00:03:23;;;;;;;20.65;8.43;;;7.20;99.90;;;;;;4964280;28;20042;-61
2021/05/24 00:05:49;;;;;;;14.32;8.02;;;7.20;99.90;;;;;;4967185;28;20470;-61
2021/05/24 00:08:15;;;;;;;17.77;8.60;;;7.20;99.90;;;;;;4966353;28;20053;-61
2021/05/24 00:10:46;;;;;;;15.20;7.53;;;7.20;99.90;;;;;;4962305;28;20093;-61
2021/05/24 00:13:15;;;;;;;17.35;7.50;;;7.20;99.90;;;;;;4966161;28;20030;-61
2021/05/24 00:15:47;;;;;;;13.15;8.75;;;7.20;99.90;;;;;;4963280;28;20022;-61
2021/05/24 00:18:14;;;;;;;17.05;8.52;;;7.20;99.90;;;;;;4966281;28;20047;-62
2021/05/24 00:20:55;;;;;;;17.45;8.55;;;7.10;99.90;;;;;;4967314;28;20022;-61
2021/05/24 00:23:21;;;;;;;17.45;8.05;;;7.10;99.90;;;;;;4963481;28;20133;-62
2021/05/24 00:25:48;;;;;;;17.08;8.27;;;7.10;99.90;;;;;;4964414;28;20089;-61
2021/05/24 00:28:14;;;;;;;16.20;7.57;;;7.20;99.90;;;;;;4968215;28;20297;-61
2021/05/24 00:30:45;;;;;;;15.93;8.05;;;7.10;99.90;;;;;;4962797;28;20038;-61
2021/05/24 00:33:12;;;;;;;13.93;6.72;;;7.10;99.90;;;;;;4967670;28;20048;-61
2021/05/24 00:35:39;;;;;;;13.32;9.05;;;7.10;99.90;;;;;;4965049;28;20106;-61
2021/05/24 00:38:06;;;;;;;17.05;8.15;;;7.00;99.90;;;;;;4965219;28;20050;-61
2021/05/24 00:40:34;;;;;;;19.25;7.80;;;7.00;99.90;;;;;;4965142;28;20729;-62
2021/05/24 00:43:01;;;;;;;18.08;8.27;;;6.90;99.90;;;;;;4967235;28;20368;-62
2021/05/24 00:45:27;;;;;;;15.48;8.07;;;7.00;99.90;;;;;;4964116;28;20497;-61
2021/05/24 00:47:53;;;;;;;15.52;8.60;;;7.00;99.90;;;;;;4966491;28;20050;-61
2021/05/24 00:50:20;;;;;;;15.63;7.63;;;7.00;99.90;;;;;;4968766;28;20074;-61
2021/05/24 00:52:46;;;;;;;20.58;9.07;;;7.10;99.90;;;;;;4969052;28;20733;-61
2021/05/24 00:55:12;;;;;;;15.38;8.02;;;7.10;99.90;;;;;;4970995;28;20027;-61
2021/05/24 00:57:39;;;;;;;15.85;7.03;;;7.00;99.90;;;;;;4969012;28;20584;-61
2021/05/24 01:00:13;;;;;;;16.42;7.38;;;7.00;99.90;;;;;;4968660;28;20031;-61
2021/05/24 01:02:39;;;;;;;17.83;7.28;;;7.10;99.90;;;;;;4969374;28;20122;-61
2021/05/24 01:05:06;;;;;;;9.75;6.45;;;7.00;99.90;;;;;;4968732;28;20076;-61
2021/05/24 01:07:32;;;;;;;11.35;7.32;;;7.00;99.90;;;;;;4969872;28;20428;-61
2021/05/24 01:09:58;;;;;;;18.63;7.40;;;7.00;99.90;;;;;;4969677;28;20062;-61
2021/05/24 01:12:25;;;;;;;20.15;7.53;;;7.10;99.90;;;;;;4967768;28;20031;-61
2021/05/24 01:14:51;;;;;;;14.18;7.10;;;7.20;99.90;;;;;;4967143;28;20095;-61
2021/05/24 01:17:16;;;;;;;16.20;8.27;;;7.10;99.90;;;;;;4969625;28;20035;-61
2021/05/24 01:19:44;;;;;;;19.02;7.65;;;7.20;99.90;;;;;;4967106;28;20022;-61
2021/05/24 01:22:15;;;;;;;14.95;8.20;;;7.20;99.90;;;;;;4967619;28;20070;-61
2021/05/24 01:24:41;;;;;;;19.13;6.80;;;7.30;99.90;;;;;;4970050;28;20098;-61
2021/05/24 01:27:07;;;;;;;11.10;6.70;;;7.30;99.90;;;;;;4965102;28;20419;-61
2021/05/24 01:29:33;;;;;;;15.77;8.20;;;7.30;99.90;;;;;;4966510;28;20769;-62
2021/05/24 01:31:59;;;;;;;11.52;7.93;;;7.30;99.90;;;;;;4969071;28;20037;-61
2021/05/24 01:34:25;;;;;;;16.13;8.00;;;7.30;99.90;;;;;;4967881;28;20023;-62
2021/05/24 01:36:51;;;;;;;14.27;9.15;;;7.30;99.90;;;;;;4967548;28;20499;-61
2021/05/24 01:39:19;;;;;;;19.75;9.00;;;7.30;99.90;;;;;;4970203;28;20150;-61
2021/05/24 01:41:46;;;;;;;15.25;9.02;;;7.30;99.90;;;;;;4966386;28;20165;-61
2021/05/24 01:44:13;;;;;;;13.30;8.40;;;7.30;99.90;;;;;;4969760;28;20038;-61
2021/05/24 01:46:39;;;;;;;12.70;8.57;;;7.30;99.90;;;;;;4969143;28;20511;-61
2021/05/24 01:49:04;;;;;;;13.05;7.85;;;7.40;99.90;;;;;;4969211;28;20030;-61
2021/05/24 01:51:30;;;;;;;14.05;7.70;;;7.40;99.90;;;;;;4966899;28;20042;-61
2021/05/24 01:53:56;;;;;;;16.05;8.82;;;7.40;99.90;;;;;;4968604;28;20035;-61
2021/05/24 01:56:22;;;;;;;15.20;8.18;;;7.30;99.90;;;;;;4969379;28;20057;-61
2021/05/24 01:58:48;;;;;;;18.30;8.68;;;7.30;99.90;;;;;;4967590;28;20394;-61
2021/05/24 02:01:14;;;;;;;17.42;7.97;;;7.50;99.90;;;;;;4966657;28;20045;-61
2021/05/24 02:03:40;;;;;;;15.50;7.90;;;7.50;99.90;;;;;;4968011;28;20025;-61
2021/05/24 02:06:06;;;;;;;17.85;7.60;;;7.60;99.90;;;;;;4967881;28;20578;-61
2021/05/24 02:08:33;;;;;;;13.40;7.55;;;7.60;99.90;;;;;;4967988;28;20037;-61
2021/05/24 02:11:01;;;;;;;13.68;7.47;;;7.60;99.90;;;;;;4968471;28;20044;-61
2021/05/24 02:13:28;;;;;;;16.95;7.13;;;7.60;99.90;;;;;;4968402;28;20030;-61
2021/05/24 02:15:55;;;;;;;13.10;7.18;;;7.60;99.90;;;;;;4967192;28;20581;-61
2021/05/24 02:18:21;;;;;;;13.40;7.78;;;7.60;99.90;;;;;;4967828;28;20456;-61
2021/05/24 02:20:47;;;;;;;14.20;7.07;;;7.60;99.90;;;;;;4967037;28;20030;-62
2021/05/24 02:23:14;;;;;;;16.65;7.78;;;7.50;99.90;;;;;;4966198;28;20096;-61
2021/05/24 02:25:41;;;;;;;14.13;6.88;;;7.60;99.90;;;;;;4969764;28;20051;-61
2021/05/24 02:28:07;;;;;;;13.13;7.07;;;7.60;99.90;;;;;;4968580;28;20136;-61
2021/05/24 02:30:34;;;;;;;10.68;6.53;;;7.60;99.90;;;;;;4967900;28;20093;-61
2021/05/24 02:33:01;;;;;;;13.85;7.07;;;7.70;99.90;;;;;;4967245;28;20041;-61
2021/05/24 02:35:28;;;;;;;16.60;7.18;;;7.70;99.90;;;;;;4968935;28;20045;-61
2021/05/24 02:37:55;;;;;;;15.27;7.38;;;7.80;99.90;;;;;;4964681;28;20336;-61
2021/05/24 02:40:22;;;;;;;11.35;6.38;;;7.80;99.90;;;;;;4968313;28;20101;-61
2021/05/24 02:42:48;;;;;;;14.40;7.20;;;7.80;99.90;;;;;;4967555;28;20194;-61
2021/05/24 02:45:16;;;;;;;10.80;6.18;;;7.80;99.90;;;;;;4967303;28;20046;-61
2021/05/24 02:47:43;;;;;;;11.70;6.70;;;7.80;99.90;;;;;;4968143;28;20303;-61
2021/05/24 02:50:11;;;;;;;12.73;6.82;;;7.80;99.90;;;;;;4966826;28;20033;-61
2021/05/24 02:52:36;;;;;;;11.45;6.60;;;7.80;99.90;;;;;;4966880;28;20134;-61
2021/05/24 02:55:05;;;;;;;12.93;5.65;;;7.90;99.90;;;;;;4967516;28;20035;-62
2021/05/24 02:57:31;;;;;;;12.70;6.20;;;7.90;99.90;;;;;;4967614;28;20038;-62
2021/05/24 02:59:57;;;;;;;9.80;5.97;;;8.00;99.90;;;;;;4966757;28;20031;-61
2021/05/24 03:02:26;;;;;;;11.45;6.30;;;7.90;99.90;;;;;;4967751;28;20037;-61
2021/05/24 03:04:53;;;;;;;18.73;6.35;;;8.00;99.90;;;;;;4967527;28;20447;-61
2021/05/24 03:07:19;;;;;;;16.15;7.07;;;8.00;99.90;;;;;;4967003;28;20550;-61
2021/05/24 03:09:44;;;;;;;10.30;6.03;;;8.00;99.90;;;;;;4965786;28;20277;-61
2021/05/24 03:12:10;;;;;;;10.82;5.68;;;8.10;99.90;;;;;;4964888;28;20773;-61
2021/05/24 03:14:36;;;;;;;13.73;5.90;;;8.10;99.90;;;;;;4965454;28;20113;-61
2021/05/24 03:17:02;;;;;;;11.80;7.13;;;8.10;99.90;;;;;;4967904;28;20039;-61
2021/05/24 03:19:28;;;;;;;14.00;6.70;;;8.10;99.90;;;;;;4964046;28;20081;-62
2021/05/24 03:21:54;;;;;;;15.82;6.88;;;8.10;99.90;;;;;;4967181;28;20589;-62
2021/05/24 03:24:20;;;;;;;14.25;6.40;;;8.20;99.90;;;;;;4967099;28;20051;-61
2021/05/24 03:26:46;;;;;;;12.75;6.00;;;8.20;99.90;;;;;;4967256;28;20556;-61
2021/05/24 03:29:13;;;;;;;12.65;6.40;;;8.20;99.90;;;;;;4966417;28;20432;-61
2021/05/24 03:31:39;;;;;;;13.82;6.65;;;8.20;99.90;;;;;;4997646;28;20407;-61
2021/05/24 03:34:04;;;;;;;12.32;6.80;;;8.20;99.90;;;;;;4964871;28;20026;-61
2021/05/24 03:36:30;;;;;;;16.73;7.18;;;8.20;99.90;;;;;;4968312;28;20160;-61
2021/05/24 03:38:56;;;;;;;9.63;6.25;;;8.30;99.90;;;;;;4966551;28;20603;-61
2021/05/24 03:41:23;;;;;;;14.73;6.63;;;8.30;99.90;;;;;;4966665;28;20041;-61
2021/05/24 03:43:48;;;;;;;8.38;5.72;;;8.30;99.90;;;;;;4981650;28;20454;-61
2021/05/24 03:46:14;;;;;;;10.70;6.63;;;8.30;99.90;;;;;;4965615;28;20057;-61
2021/05/24 03:48:41;;;;;;;14.35;7.13;;;8.30;99.90;;;;;;4994076;28;20142;-61
2021/05/24 03:51:08;;;;;;;15.02;6.97;;;8.30;99.90;;;;;;4965218;28;20042;-61
2021/05/24 03:53:35;;;;;;;11.18;6.70;;;8.30;99.90;;;;;;4967173;28;20618;-61
2021/05/24 03:56:01;;;;;;;11.68;6.78;;;8.40;99.90;;;;;;4965785;28;20039;-61
2021/05/24 03:58:27;;;;;;;13.95;7.53;;;8.40;99.90;;;;;;4966687;28;20030;-62
2021/05/24 04:00:53;;;;;;;14.02;8.80;;;8.40;99.90;;;;;;4966470;28;20039;-61
2021/05/24 04:03:19;;;;;;;16.83;8.85;;;8.40;99.90;;;;;;4966358;28;20384;-61
2021/05/24 04:05:47;;;;;;;14.45;8.00;;;8.40;99.90;;;;;;4964601;28;20074;-61
2021/05/24 04:08:13;;;;;;;13.48;8.32;;;8.50;99.90;;;;;;4965330;28;20733;-61
2021/05/24 04:11:02;;;;;;;17.08;8.95;;;8.50;99.90;;;;;;4966189;28;20486;-62
2021/05/24 04:13:25;;;;;;;10.80;7.80;;;8.50;99.90;;;;;;4966439;28;20611;-61
2021/05/24 04:15:53;;;;;;;14.10;8.10;;;8.50;99.90;;;;;;4965374;28;20157;-61
2021/05/24 04:18:21;;;;;;;12.82;8.25;;;8.50;99.90;;;;;;4965913;28;20724;-61
2021/05/24 04:20:47;;;;;;;14.38;8.50;;;8.50;99.90;;;;;;4964736;28;20038;-62
2021/05/24 04:23:14;;;;;;;15.40;8.90;;;8.60;99.90;;;;;;4965010;28;20460;-61
2021/05/24 04:25:41;;;;;;;13.52;8.90;;;8.70;99.90;;;;;;4965438;28;20050;-61
2021/05/24 04:28:07;;;;;;;15.52;8.93;;;8.60;99.90;;;;;;4967360;28;20157;-61
2021/05/24 04:30:33;;;;;;;19.25;9.43;;;8.70;99.90;;;;;;4966302;28;20514;-62
2021/05/24 04:32:58;;;;;;;11.35;8.85;;;8.80;99.90;;;;;;4980522;28;20035;-61
2021/05/24 04:35:24;;;;;;;16.52;9.88;;;8.80;99.90;;;;;;4966180;28;20030;-61
2021/05/24 04:37:50;;;;;;;16.42;10.60;;;8.80;99.90;;;;;;4964387;28;20104;-61
2021/05/24 04:40:16;;;;;;;16.35;9.52;;;8.90;99.90;;;;;;4964206;28;20048;-61
2021/05/24 04:42:42;;;;;;;17.85;10.23;;;8.90;99.90;;;;;;4964250;28;20445;-61
2021/05/24 04:45:09;;;;;;;17.80;9.85;;;9.00;99.90;;;;;;4966143;28;20076;-61
2021/05/24 04:47:35;;;;;;;17.08;10.85;;;9.10;99.90;;;;;;4966028;28;20092;-61
2021/05/24 04:50:01;;;;;;;15.50;9.40;;;9.10;99.90;;;;;;4962312;28;20038;-61
2021/05/24 04:52:26;;;;;;;12.40;9.50;;;9.20;99.90;;;;;;4960793;28;20412;-62
2021/05/24 04:54:52;;;;;;;13.98;9.70;;;9.30;99.90;;;;;;4964641;28;20074;-61
2021/05/24 04:57:18;;;;;;;11.70;8.15;;;9.40;99.90;;;;;;4958799;28;20108;-61
2021/05/24 04:59:46;;;;;;;14.13;8.60;;;9.50;99.90;;;;;;4962470;28;20034;-61
2021/05/24 05:02:12;;;;;;;17.23;9.00;;;9.50;99.90;;;;;;4959306;28;20030;-61
2021/05/24 05:04:38;;;;;;;11.05;8.25;;;9.60;99.90;;;;;;4961033;28;20034;-61
2021/05/24 05:07:04;;;;;;;16.48;8.48;;;9.60;99.90;;;;;;4962530;28;20054;-61
2021/05/24 05:09:30;;;;;;;15.88;8.45;;;9.60;99.90;;;;;;4942666;28;20030;-61
2021/05/24 05:11:56;;;;;;;12.95;7.70;;;9.60;99.90;;;;;;4959922;28;20030;-62
2021/05/24 05:14:23;;;;;;;12.57;8.00;;;9.70;99.90;;;;;;4964925;28;20057;-61
2021/05/24 05:16:49;;;;;;;12.32;7.95;;;9.70;99.90;;;;;;4961197;28;20580;-61
2021/05/24 05:19:16;;;;;;;11.80;7.22;;;9.70;99.90;;;;;;4962471;28;20035;-62
2021/05/24 05:21:46;;;;;;;16.02;8.95;;;9.70;99.90;;;;;;4964390;28;20037;-62
2021/05/24 05:24:12;;;;;;;12.38;8.88;;;9.80;99.90;;;;;;4964836;28;20050;-61
2021/05/24 05:26:38;;;;;;;12.77;7.63;;;9.80;99.90;;;;;;4966026;28;20054;-62
2021/05/24 05:29:04;;;;;;;12.35;7.78;;;9.80;99.90;;;;;;4964499;28;20035;-61
2021/05/24 05:31:30;;;;;;;11.32;7.30;;;9.80;99.90;;;;;;4962357;28;20070;-61
2021/05/24 05:33:56;;;;;;;12.82;6.95;;;9.90;99.90;;;;;;4964759;28;20041;-61
2021/05/24 05:36:24;;;;;;;13.30;8.25;;;9.90;99.90;;;;;;4965222;28;20541;-62
2021/05/24 05:38:49;;;;;;;10.07;6.93;;;9.90;99.90;;;;;;4967206;28;20034;-61
2021/05/24 05:41:15;;;;;;;14.60;8.38;;;10.00;99.90;;;;;;4969555;28;20113;-61
2021/05/24 05:43:41;;;;;;;11.68;6.93;;;10.10;99.90;;;;;;4966804;28;20030;-61
2021/05/24 05:46:07;;;;;;;13.00;7.60;;;10.20;99.90;;;;;;4967773;28;20109;-61
2021/05/24 05:48:33;;;;;;;15.65;8.80;;;10.30;99.90;;;;;;4968823;28;20034;-62
2021/05/24 05:50:59;;;;;;;12.32;6.90;;;10.30;99.90;;;;;;4967041;28;20509;-61
2021/05/24 05:53:24;;;;;;;11.23;6.93;;;10.30;99.90;;;;;;4959875;28;20230;-60
2021/05/24 05:55:52;;;;;;;8.60;6.28;;;10.30;99.90;;;;;;4966884;28;20117;-60
2021/05/24 05:58:19;;;;;;;9.90;6.25;;;10.30;99.90;;;;;;4966921;28;20656;-60
2021/05/24 06:00:45;;;;;;;11.07;6.50;;;10.30;99.90;;;;;;4972518;28;20460;-60
2021/05/24 06:03:11;;;;;;;11.73;6.10;;;10.40;99.90;;;;;;4961467;28;20066;-60
2021/05/24 06:05:37;;;;;;;13.43;5.93;;;10.50;99.90;;;;;;4968289;28;20482;-61
2021/05/24 06:08:04;;;;;;;8.85;5.55;;;10.60;99.90;;;;;;4965963;28;20042;-61
2021/05/24 06:10:31;;;;;;;12.65;6.07;;;10.70;99.90;;;;;;4965206;28;20498;-61
2021/05/24 06:12:57;;;;;;;9.88;6.18;;;10.70;99.90;;;;;;4966331;28;20057;-61
2021/05/24 06:15:23;;;;;;;12.00;5.38;;;10.80;99.90;;;;;;4967571;28;20072;-60
2021/05/24 06:17:49;;;;;;;9.80;5.78;;;10.70;99.90;;;;;;4970353;28;20035;-60
2021/05/24 06:20:16;;;;;;;8.70;5.18;;;10.80;99.90;;;;;;4964602;28;20045;-61
2021/05/24 06:22:42;;;;;;;13.73;6.00;;;10.90;99.90;;;;;;4968693;28;20031;-60
2021/05/24 06:25:10;;;;;;;9.75;5.50;;;10.90;99.90;;;;;;4964674;28;20055;-60
2021/05/24 06:27:36;;;;;;;12.32;5.53;;;11.00;99.90;;;;;;4965828;28;20121;-60
2021/05/24 06:30:04;;;;;;;8.70;5.65;;;11.00;99.90;;;;;;4967031;28;20031;-60
2021/05/24 06:32:30;;;;;;;9.45;5.63;;;11.00;99.90;;;;;;4969126;28;20429;-60
2021/05/24 06:34:56;;;;;;;11.90;5.28;;;11.00;99.90;;;;;;4966517;28;20030;-60
2021/05/24 06:37:21;;;;;;;8.32;5.18;;;11.10;99.90;;;;;;4964951;28;20123;-61
2021/05/24 06:39:47;;;;;;;9.05;5.20;;;11.10;99.90;;;;;;4966070;28;20035;-60
2021/05/24 06:42:13;;;;;;;9.13;5.28;;;11.10;99.90;;;;;;4961585;28;20027;-60
2021/05/24 06:44:39;;;;;;;9.68;5.55;;;11.20;99.90;;;;;;4962486;28;20035;-60
2021/05/24 06:47:05;;;;;;;12.75;5.25;;;11.20;99.90;;;;;;4949981;28;20121;-60
2021/05/24 06:49:34;;;;;;;12.15;5.43;;;11.30;99.90;;;;;;4966468;28;20034;-60
2021/05/24 06:52:00;;;;;;;9.80;5.03;;;11.30;99.90;;;;;;4956073;28;20154;-60
2021/05/24 06:54:25;;;;;;;14.48;4.50;;;11.30;99.90;;;;;;4966769;28;20222;-60
2021/05/24 06:56:51;;;;;;;9.50;4.78;;;11.40;99.90;;;;;;4965460;28;20061;-60
2021/05/24 06:59:17;;;;;;;12.40;5.57;;;11.50;99.90;;;;;;4964507;28;20677;-60
2021/05/24 07:01:43;;;;;;;9.45;4.40;;;11.50;99.90;;;;;;4959626;28;20038;-62
2021/05/24 07:04:08;;;;;;;6.82;3.90;;;11.60;99.90;;;;;;4958660;28;20478;-61
2021/05/24 07:06:34;;;;;;;7.40;4.28;;;11.60;99.90;;;;;;4962071;28;20544;-61
2021/05/24 07:09:00;;;;;;;7.80;4.00;;;11.70;99.90;;;;;;4960412;28;20328;-62
2021/05/24 07:11:26;;;;;;;8.48;3.88;;;11.70;99.90;;;;;;4961613;28;20030;-61
2021/05/24 07:13:52;;;;;;;9.20;3.90;;;11.80;99.90;;;;;;4961766;28;20754;-61
2021/05/24 07:16:18;;;;;;;7.70;4.05;;;11.80;99.90;;;;;;4963100;28;20553;-61
2021/05/24 07:18:43;;;;;;;6.60;3.25;;;11.80;99.90;;;;;;4967226;28;20454;-61
2021/05/24 07:21:09;;;;;;;6.28;3.42;;;11.80;99.90;;;;;;4962940;28;20483;-61
2021/05/24 07:23:35;;;;;;;7.57;3.70;;;11.80;99.90;;;;;;4967505;28;20027;-61
2021/05/24 07:26:01;;;;;;;7.95;3.78;;;11.90;99.90;;;;;;4966138;28;20113;-61
2021/05/24 07:28:27;;;;;;;6.63;3.97;;;11.80;99.90;;;;;;4965639;28;20532;-61
2021/05/24 07:30:53;;;;;;;9.18;4.00;;;11.80;99.90;;;;;;4965369;28;20031;-61
2021/05/24 07:33:18;;;;;;;7.97;3.85;;;11.70;99.90;;;;;;4966703;28;20045;-61
2021/05/24 07:35:44;;;;;;;9.77;4.43;;;11.70;99.90;;;;;;4959290;28;20660;-61
2021/05/24 07:38:10;;;;;;;6.85;4.13;;;11.60;99.90;;;;;;4961099;28;20038;-61
2021/05/24 07:40:36;;;;;;;7.80;3.80;;;11.60;99.90;;;;;;4963502;28;20027;-62
2021/05/24 07:43:03;;;;;;;6.57;3.80;;;11.60;99.90;;;;;;4964210;28;20030;-62
2021/05/24 07:45:29;;;;;;;5.97;3.40;;;11.70;99.90;;;;;;4964398;28;20022;-61
2021/05/24 07:47:54;;;;;;;6.28;3.45;;;11.80;99.90;;;;;;4963759;28;20047;-61
2021/05/24 07:50:20;;;;;;;8.23;3.90;;;11.90;99.90;;;;;;4965289;28;20086;-62
2021/05/24 07:52:46;;;;;;;6.90;3.30;;;12.00;99.90;;;;;;4961658;28;20031;-61
2021/05/24 07:55:12;;;;;;;5.72;3.55;;;12.00;99.90;;;;;;4965934;28;20062;-61
2021/05/24 07:57:39;;;;;;;8.20;3.83;;;12.10;99.90;;;;;;4964557;28;20026;-61
2021/05/24 08:00:07;;;;;;;7.40;3.85;;;12.00;99.90;;;;;;4960528;28;20027;-62
2021/05/24 08:02:38;;;;;;;7.82;3.95;;;12.00;99.90;;;;;;4965769;28;20549;-62
2021/05/24 08:05:04;;;;;;;6.30;3.45;;;12.00;99.90;;;;;;4961539;28;20031;-62
2021/05/24 08:07:29;;;;;;;11.50;3.88;;;11.90;99.90;;;;;;4962135;28;20499;-61
2021/05/24 08:09:55;;;;;;;7.25;3.58;;;11.90;99.90;;;;;;4968120;28;20037;-61
2021/05/24 08:12:21;;;;;;;10.52;3.28;;;11.90;99.90;;;;;;4961712;28;20845;-61
2021/05/24 08:14:47;;;;;;;8.95;5.10;;;11.80;99.90;;;;;;4964886;28;20485;-61
2021/05/24 08:17:13;;;;;;;9.07;3.75;;;11.80;99.90;;;;;;4965245;28;20182;-61
2021/05/24 08:19:39;;;;;;;7.78;3.90;;;11.70;99.90;;;;;;4961340;28;20019;-61
2021/05/24 08:22:04;;;;;;;5.88;3.95;;;11.70;99.90;;;;;;4962535;28;20510;-61
2021/05/24 08:24:30;;;;;;;8.15;4.00;;;11.60;99.90;;;;;;4964115;28;20051;-60
2021/05/24 08:26:56;;;;;;;9.05;3.95;;;11.60;99.90;;;;;;4962501;28;20035;-61
2021/05/24 08:29:22;;;;;;;5.63;3.75;;;11.60;99.90;;;;;;4963954;28;20110;-61
2021/05/24 08:31:48;;;;;;;7.05;4.18;;;11.60;99.90;;;;;;4965150;28;20789;-61
2021/05/24 08:34:13;;;;;;;9.15;4.22;;;11.50;99.90;;;;;;4993883;28;20661;-61
2021/05/24 08:36:42;;;;;;;5.82;3.97;;;11.50;99.90;;;;;;4964613;28;20390;-61
2021/05/24 08:39:07;;;;;;;7.40;4.78;;;11.50;99.90;;;;;;4962943;28;20399;-60
2021/05/24 08:41:34;;;;;;;9.15;4.53;;;11.50;99.90;;;;;;4963697;28;20047;-61
2021/05/24 08:43:59;;;;;;;7.75;3.83;;;11.50;99.90;;;;;;4961724;28;20038;-61
2021/05/24 08:46:26;;;;;;;8.15;4.32;;;11.50;99.90;;;;;;4962535;28;20125;-60
2021/05/24 08:48:53;;;;;;;10.63;4.90;;;11.50;99.90;;;;;;4963139;28;20094;-61
2021/05/24 08:51:19;;;;;;;11.95;4.78;;;11.60;99.90;;;;;;4964262;28;20328;-60
2021/05/24 08:53:45;;;;;;;6.80;3.80;;;11.70;99.90;;;;;;4962639;28;20023;-60
2021/05/24 08:56:11;;;;;;;8.20;4.55;;;11.80;99.90;;;;;;4964004;28;20034;-60
2021/05/24 08:58:38;;;;;;;9.52;4.20;;;11.80;99.90;;;;;;4965537;28;20034;-60
2021/05/24 09:01:05;;;;;;;6.20;3.20;;;11.90;99.90;;;;;;4960263;28;20035;-60
2021/05/24 09:03:33;;;;;;;8.55;4.15;;;11.90;99.90;;;;;;4959409;28;20018;-60
2021/05/24 09:06:02;;;;;;;9.40;4.45;;;12.00;99.90;;;;;;4963471;28;20037;-60
2021/05/24 09:08:39;;;;;;;15.43;5.93;;;12.10;99.90;;;;;;4959169;28;20034;-60
2021/05/24 09:11:23;;;;;;;14.68;6.45;;;12.00;99.90;;;;;;4965249;28;20034;-60
2021/05/24 09:13:49;;;;;;;11.77;5.95;;;12.10;99.90;;;;;;4967456;28;20113;-61
2021/05/24 09:16:28;;;;;;;12.13;5.75;;;12.20;99.90;;;;;;4964850;28;20049;-60
2021/05/24 09:19:17;;;;;;;9.32;5.30;;;12.40;99.90;;;;;;4963983;28;20030;-60
2021/05/24 09:22:00;;;;;;;6.43;4.13;;;12.60;99.90;;;;;;4960958;28;20873;-61
2021/05/24 09:24:36;;;;;;;8.60;4.13;;;12.80;99.90;;;;;;4963817;28;20129;-60
2021/05/24 09:27:07;;;;;;;6.70;4.07;;;12.90;99.90;;;;;;4965854;28;20035;-60
2021/05/24 09:29:46;;;;;;;7.07;3.88;;;12.90;99.90;;;;;;4961577;28;20546;-60
2021/05/24 09:32:25;;;;;;;8.93;4.40;;;12.90;99.90;;;;;;4967796;28;20053;-60
2021/05/24 09:34:53;;;;;;;6.90;3.83;;;12.90;99.90;;;;;;4963491;28;20041;-61
2021/05/24 09:37:30;;;;;;;9.35;4.22;;;12.90;99.90;;;;;;4963872;28;20030;-61
2021/05/24 09:39:56;;;;;;;6.82;3.75;;;12.90;99.90;;;;;;4963051;28;20425;-61
2021/05/24 09:42:22;;;;;;;7.53;4.20;;;12.90;99.90;;;;;;4959998;28;20041;-61
2021/05/24 09:44:55;;;;;;;8.43;4.30;;;12.90;99.90;;;;;;4967181;28;20031;-61
2021/05/24 09:47:35;;;;;;;7.97;4.57;;;12.90;99.90;;;;;;4963689;28;20074;-61
2021/05/24 09:50:16;;;;;;;9.60;4.10;;;13.00;99.90;;;;;;4966982;28;20105;-61
2021/05/24 09:52:44;;;;;;;6.57;3.53;;;12.90;99.90;;;;;;4967656;28;20044;-61
2021/05/24 09:55:22;;;;;;;10.35;3.58;;;12.90;99.90;;;;;;4965049;28;20027;-61
2021/05/24 09:57:59;;;;;;;7.75;3.70;;;13.00;99.90;;;;;;4964005;28;20379;-60
2021/05/24 10:00:51;;;;;;;10.40;3.53;;;13.00;99.90;;;;;;4965152;28;20027;-61
2021/05/24 10:03:21;;;;;;;8.27;3.83;;;13.10;99.90;;;;;;4963334;28;20557;-61
2021/05/24 10:05:49;;;;;;;;;;;13.30;99.90;;;;;;4966300;28;20050;-61
2021/05/24 10:08:15;;;;;;;8.38;3.22;;;13.40;99.90;;;;;;4963355;28;19956;-61
2021/05/24 10:10:42;;;;;;;6.97;3.13;;;13.60;99.90;;;;;;4964151;28;20097;-61
2021/05/24 10:13:09;;;;;;;7.13;2.92;;;13.70;99.90;;;;;;4963982;28;20174;-61
2021/05/24 10:15:43;;;;;;;9.13;3.40;;;13.50;99.90;;;;;;4965343;28;20038;-61
2021/05/24 10:18:09;;;;;;;5.68;3.45;;;13.50;99.90;;;;;;4965140;28;20053;-61
2021/05/24 10:20:36;;;;;;;9.32;3.35;;;13.50;99.90;;;;;;4963891;28;20034;-61
2021/05/24 10:23:02;;;;;;;8.77;4.03;;;13.60;99.90;;;;;;4962756;28;20034;-60
2021/05/24 10:25:28;;;;;;;7.57;4.13;;;13.60;99.90;;;;;;4960854;28;20497;-60
2021/05/24 10:27:54;;;;;;;7.82;3.58;;;13.60;99.90;;;;;;4963389;28;20536;-61
2021/05/24 10:30:21;;;;;;;10.52;3.22;;;13.60;99.90;;;;;;4961206;28;20129;-60
2021/05/24 10:32:58;;;;;;;4.72;3.10;;;13.50;99.90;;;;;;4959800;28;20029;-60
2021/05/24 10:35:42;;;;;;;10.10;3.85;;;13.40;99.90;;;;;;4960805;28;20034;-60
2021/05/24 10:38:35;;;;;;;9.23;3.60;;;13.20;99.90;;;;;;4961657;28;20022;-60
2021/05/24 10:41:09;;;;;;;7.97;3.95;;;13.10;99.90;;;;;;4963151;28;20039;-60
2021/05/24 10:43:46;;;;;;;9.05;4.13;;;13.10;99.90;;;;;;4960280;28;20061;-60
2021/05/24 10:46:30;;;;;;;7.95;4.53;;;13.20;99.90;;;;;;4960175;28;20046;-61
2021/05/24 10:49:04;;;;;;;9.07;4.40;;;13.40;99.90;;;;;;4958421;28;20033;-61
2021/05/24 10:51:45;;;;;;;10.98;4.97;;;13.60;99.90;;;;;;4959882;28;20069;-60
2021/05/24 10:54:12;;;;;;;7.90;4.57;;;13.60;99.90;;;;;;4963108;28;20125;-60
2021/05/24 10:56:44;;;;;;;4.82;3.30;;;13.60;99.90;;;;;;4958678;28;20374;-60
2021/05/24 10:59:47;;;;;;;6.32;3.53;;;13.60;99.90;;;;;;4963739;28;20038;-61
2021/05/24 11:02:16;;;;;;;5.93;4.05;;;13.50;99.90;;;;;;4968532;28;20077;-61
2021/05/24 11:04:54;;;;;;;9.68;5.40;;;13.50;99.90;;;;;;4968163;28;20167;-61
2021/05/24 11:07:40;;;;;;;8.63;5.18;;;13.40;99.90;;;;;;4964780;28;20145;-61
2021/05/24 11:10:17;;;;;;;10.60;5.45;;;13.40;99.90;;;;;;4964385;28;20568;-61
2021/05/24 11:12:44;;;;;;;9.07;5.47;;;13.30;99.90;;;;;;4966991;28;20036;-61
2021/05/24 11:15:16;;;;;;;10.35;5.32;;;13.30;99.90;;;;;;4963331;28;20026;-61
2021/05/24 11:18:19;;;;;;;10.15;5.20;;;13.30;99.90;;;;;;4966465;28;20038;-61
2021/05/24 11:20:56;;;;;;;12.52;4.95;;;13.30;99.90;;;;;;4966788;28;20041;-61
2021/05/24 11:23:33;;;;;;;7.70;4.60;;;13.40;99.90;;;;;;4965494;28;20038;-61
2021/05/24 11:26:31;;;;;;;8.85;4.93;;;13.40;99.90;;;;;;4965213;28;20042;-60
2021/05/24 11:29:00;;;;;;;8.85;4.55;;;13.40;99.90;;;;;;4995988;28;20043;-61
2021/05/24 11:31:36;;;;;;;5.38;4.70;;;13.60;99.90;;;;;;4965241;28;20105;-61
2021/05/24 11:34:10;;;;;;;11.15;4.65;;;13.70;99.90;;;;;;4963027;28;20061;-61
2021/05/24 11:36:39;;;;;;;11.23;5.10;;;13.80;99.90;;;;;;4963857;28;20073;-61
2021/05/24 11:39:16;;;;;;;7.88;4.20;;;13.90;99.90;;;;;;4966157;28;20046;-61
2021/05/24 11:42:04;;;;;;;6.93;3.97;;;14.00;99.90;;;;;;4967930;28;20050;-61
2021/05/24 11:44:47;;;;;;;11.77;4.28;;;14.00;99.90;;;;;;4963259;28;20030;-60
2021/05/24 11:47:19;;;;;;;8.50;3.90;;;14.00;99.90;;;;;;4965743;28;20043;-61
2021/05/24 11:49:48;;;;;;;6.82;4.00;;;13.90;99.90;;;;;;4965683;28;20023;-61
2021/05/24 11:52:19;;;;;;;7.32;4.00;;;13.90;99.90;;;;;;4965270;28;20023;-60
2021/05/24 11:54:49;;;;;;;9.23;3.95;;;13.80;99.90;;;;;;4966880;28;20569;-60
2021/05/24 11:57:22;;;;;;;10.30;4.15;;;13.70;99.90;;;;;;4964396;28;20491;-60
2021/05/24 11:59:49;;;;;;;6.63;3.97;;;13.60;99.90;;;;;;4966974;28;20057;-60
2021/05/24 12:02:15;;;;;;;6.70;4.53;;;13.50;99.90;;;;;;4966784;28;20154;-60
2021/05/24 12:04:45;;;;;;;6.32;4.22;;;13.50;99.90;;;;;;4962334;28;20484;-60
2021/05/24 12:07:20;;;;;;;7.45;4.00;;;13.50;99.90;;;;;;4964528;28;20095;-60
2021/05/24 12:09:50;;;;;;;5.05;3.65;;;13.40;99.90;;;;;;4965828;28;20427;-60
2021/05/24 12:12:18;;;;;;;6.57;4.15;;;13.50;99.90;;;;;;4978506;28;20041;-61
2021/05/24 12:14:46;;;;;;;5.75;4.30;;;13.60;99.90;;;;;;4965617;28;20106;-61
2021/05/24 12:17:15;;;;;;;9.00;3.67;;;13.70;99.90;;;;;;4965592;28;20030;-61
2021/05/24 12:19:43;;;;;;;7.90;3.80;;;13.80;99.90;;;;;;4963878;28;20030;-61
2021/05/24 12:22:12;;;;;;;5.85;3.60;;;13.90;99.90;;;;;;4963499;28;20054;-61
2021/05/24 12:24:41;;;;;;;7.05;3.83;;;13.90;99.90;;;;;;4979389;28;20054;-61
2021/05/24 12:27:08;;;;;;;7.13;3.50;;;13.80;99.90;;;;;;4965860;28;20468;-61
2021/05/24 12:29:54;;;;;;;9.45;4.03;;;13.80;99.90;;;;;;4967312;28;20034;-61
2021/05/24 12:32:35;;;;;;;5.57;3.53;;;13.90;99.90;;;;;;4964516;28;20034;-61
2021/05/24 12:35:10;;;;;;;6.22;4.05;;;13.90;99.90;;;;;;4964221;28;20030;-61
2021/05/24 12:37:37;;;;;;;7.68;3.85;;;13.90;99.90;;;;;;4962441;28;20559;-60
2021/05/24 12:40:09;;;;;;;4.95;3.83;;;13.90;99.90;;;;;;4962413;28;20140;-61
2021/05/24 12:42:37;;;;;;;4.82;3.10;;;13.90;99.90;;;;;;4964141;28;20045;-74
2021/05/24 12:45:05;;;;;;;9.65;3.65;;;14.00;99.90;;;;;;4995629;28;20035;-71
2021/05/24 12:47:32;;;;;;;8.18;3.25;;;14.00;99.90;;;;;;4965002;28;20049;-72
2021/05/24 12:50:13;;;;;;;4.85;3.13;;;14.00;99.90;;;;;;4967706;28;20117;-71
2021/05/24 12:52:38;;;;;;;5.32;3.60;;;14.20;99.90;;;;;;4968224;28;20436;-71